Wind From: 20-09-2018 10:00 Until: 20:00 warning for: Wind Level: Yellow info button
suomi:
Tuulivaroitus maa-alueille: Lounaistuuli on voimakasta iltapäivällä ja illalla, tuulen nopeus puuskissa 15 m/s.

svenska:
Vindvarning för landområden: På eftermiddagen och kvällen är den sydvästliga vinden kraftigt, i vindbyarna 15 m/s.

english:
Wind warning for land areas: In the afternoon and in the evening, strong winds from southwest may bring strong gusts of 15 m/s. 


Thunder radar more information blitzortung!


Löydät sääaseman tiedot myös:

European Weather Network

Finland Weather Exchange

Weather Underground

AWEKAS



Weather Underground säähistoriasivu

Päivittäin yhteenveto Maaliskuu 1, 2017 Yksiköt:  Metriset    Englantilaiset   Molemmat
« Edellinen Päivä
Seuraava Päivä »
Päivittäin Viikoittain Kuukausittain Vuosittain Mukautettu
  Korkea: Matala: Keskiarvo:
Lämpötila: -17.8 °C -17.6 °C -16.8 °C
Kastepiste: -17.8 °C -17.8 °C -17.2 °C
Kosteus: Humidity % 88 % 94 %
Tuulen nopeus: 0 km/h 0 km/h 4.7 km/h
Tuulenpuuska: 0 km/h - -
Tuuli:- - South
Ilmanpaine: 0 hPa 33328.4 hPa -
Sade: 0 mm    
Historical Graphs
 
 
Taulukkotiedot Maaliskuu 1, 2017
Aika Lämpötila Kastepiste Ilmanpaine Tuuli Tuulen nopeus Tuulenpuuska Kosteus Sademäärä (tunneittain)
-17.8 °C -17.8 °C 0 hPa Calm     Humidity % 0 mm
00:00 -16.4 °C -16.7 °C 33386 hPa SSE 2.6 km/h 15.6 km/h 97 % 0 mm
00:15 -16.4 °C -16.7 °C 33386 hPa Calm   5.1 km/h 97 % 0 mm
00:30 -16.5 °C -16.7 °C 33375.8 hPa Calm     97 % 0 mm
00:45 -16.5 °C -16.7 °C 33375.8 hPa Calm   2.6 km/h 97 % 0 mm
01:00 -16.5 °C -16.7 °C 33362.3 hPa Calm     97 % 0 mm
01:15 -16.5 °C -16.7 °C 33362.3 hPa Calm   2.6 km/h 97 % 0 mm
01:30 -16.5 °C -16.7 °C 33362.3 hPa Calm     97 % 0 mm
01:45 -16.6 °C -16.8 °C 33352.1 hPa Calm   2.6 km/h 97 % 0 mm
02:00 -16.5 °C -16.7 °C 33338.6 hPa Calm   5.1 km/h 97 % 0 mm
02:15 -16.6 °C -16.8 °C 33338.6 hPa Calm   7.7 km/h 97 % 0 mm
02:30 -16.6 °C -16.8 °C 33338.6 hPa South 2.6 km/h 12.9 km/h 97 % 0 mm
02:45 -16.7 °C -16.9 °C 33338.6 hPa South 5.1 km/h 20.8 km/h 97 % 0 mm
03:00 -17.1 °C -17.3 °C 33338.6 hPa South 5.1 km/h 18.2 km/h 96 % 0 mm
03:15 -17.3 °C -17.6 °C 33328.4 hPa Calm   10.3 km/h 96 % 0 mm
03:30 -17.4 °C -17.8 °C 33328.4 hPa Calm     96 % 0 mm
03:45 -17.5 °C -17.7 °C 33328.4 hPa Calm     97 % 0 mm
04:00 -17.6 °C -17.8 °C 33328.4 hPa Calm   5.1 km/h 97 % 0 mm
04:15 -17.6 °C -17.8 °C 33328.4 hPa Calm     97 % 0 mm
04:30 -17.6 °C -17.8 °C 33328.4 hPa Calm     97 % 0 mm
04:45 -17.6 °C -17.8 °C 33328.4 hPa Calm     97 % 0 mm
05:00 -17.5 °C -17.7 °C 33328.4 hPa Calm     97 % 0 mm
05:15 -17.5 °C -17.7 °C 33338.6 hPa Calm     97 % 0 mm
05:30 -17.5 °C -17.7 °C 33352.1 hPa Calm     97 % 0 mm
05:45 -17.4 °C -17.7 °C 33352.1 hPa Calm     97 % 0 mm
06:00 -17.4 °C -17.7 °C 33362.3 hPa Calm     97 % 0 mm
06:15 -17.4 °C -17.7 °C 33362.3 hPa Calm     97 % 0 mm
06:30 -17.4 °C -17.6 °C 33362.3 hPa Calm     97 % 0 mm
06:45 -17.3 °C -17.6 °C 33375.8 hPa SSW 2.6 km/h 12.9 km/h 97 % 0 mm
07:00 -17.3 °C -17.5 °C 33375.8 hPa SSW 5.1 km/h 18.2 km/h 97 % 0 mm
07:15 -17.3 °C -17.5 °C 33386 hPa SSW 10.3 km/h 20.8 km/h 97 % 0 mm
07:30 -17.3 °C -17.5 °C 33396.1 hPa SSW 7.7 km/h 20.8 km/h 97 % 0 mm
07:45 -17.2 °C -17.4 °C 33409.7 hPa SSW 12.9 km/h 23.3 km/h 97 % 0 mm
08:00 -17.2 °C -17.4 °C 33409.7 hPa SSW 12.9 km/h 33.6 km/h 97 % 0 mm
08:15 -17.2 °C -17.4 °C 33419.8 hPa SSW 10.3 km/h 28.5 km/h 97 % 0 mm
08:30 -17.1 °C -17.3 °C 33419.8 hPa SSW 12.9 km/h 28.5 km/h 98 % 0 mm
08:45 -17.1 °C -17.2 °C 33433.4 hPa SSW 7.7 km/h 28.5 km/h 98 % 0 mm
09:00 -17.1 °C -17.2 °C 33443.5 hPa SSW 12.9 km/h 33.6 km/h 98 % 0 mm
09:15 -17 °C -17.1 °C 33443.5 hPa SSW 12.9 km/h 23.3 km/h 98 % 0 mm
09:30 -16.9 °C -17.1 °C 33453.7 hPa SSW 15.6 km/h 33.6 km/h 98 % 0 mm
09:45 -16.9 °C -17.2 °C 33477.4 hPa SSW 15.6 km/h 33.6 km/h 97 % 0 mm
10:00 -16.9 °C -17.2 °C 33490.9 hPa SSW 15.6 km/h 46.7 km/h 97 % 0 mm
10:15 -16.9 °C -17.2 °C 33490.9 hPa SSW 15.6 km/h 33.6 km/h 97 % 0 mm
10:30 -16.9 °C -17.2 °C 33501.1 hPa SSW 12.9 km/h 31.1 km/h 97 % 0 mm
10:45 -17 °C -17.2 °C 33511.2 hPa SSW 15.6 km/h 38.8 km/h 97 % 0 mm
11:00 -17 °C -17.3 °C 33511.2 hPa SSW 10.3 km/h 28.5 km/h 96 % 0 mm
11:15 -17 °C -17.2 °C 33524.8 hPa SSW 12.9 km/h 28.5 km/h 97 % 0 mm
11:30 -16.9 °C -17.3 °C 33524.8 hPa SSW 12.9 km/h 38.8 km/h 96 % 0 mm
11:45 -16.9 °C -17.3 °C 33524.8 hPa SSW 10.3 km/h 25.9 km/h 96 % 0 mm
12:00 -16.9 °C -17.3 °C 33534.9 hPa South 12.9 km/h 28.5 km/h 96 % 0 mm
12:15 -16.9 °C -17.2 °C 33534.9 hPa SSW 10.3 km/h 18.2 km/h 96 % 0 mm
12:30 -16.8 °C -17.2 °C 33534.9 hPa SSW 12.9 km/h 31.1 km/h 96 % 0 mm
12:45 -16.8 °C -17.1 °C 33534.9 hPa SSW 10.3 km/h 23.3 km/h 96 % 0 mm
13:00 -16.8 °C -17.2 °C 33545.1 hPa SSW 12.9 km/h 28.5 km/h 95 % 0 mm
13:15 -16.7 °C -17.1 °C 33545.1 hPa SSW 10.3 km/h 31.1 km/h 95 % 0 mm
13:30 -16.6 °C -17 °C 33545.1 hPa SSW 7.7 km/h 20.8 km/h 95 % 0 mm
13:45 -16.3 °C -16.8 °C 33545.1 hPa SSW 7.7 km/h 28.5 km/h 94 % 0 mm
14:00 -16.3 °C -17 °C 33545.1 hPa SSW 10.3 km/h 28.5 km/h 92 % 0 mm
14:15 -16.3 °C -16.9 °C 33545.1 hPa SSW 10.3 km/h 23.3 km/h 92 % 0 mm
14:30 -16.1 °C -16.9 °C 33534.9 hPa South 7.7 km/h 20.8 km/h 90 % 0 mm
14:45 -16 °C -16.9 °C 33534.9 hPa South 7.7 km/h 18.2 km/h 89 % 0 mm
15:00 -15.9 °C -16.7 °C 33534.9 hPa South 2.6 km/h 12.9 km/h 90 % 0 mm
15:15 -15.9 °C -16.9 °C 33534.9 hPa SSW 5.1 km/h 23.3 km/h 88 % 0 mm
15:30 -15.8 °C -16.8 °C 33534.9 hPa South 5.1 km/h 28.5 km/h 88 % 0 mm
15:45 -15.9 °C -16.9 °C 33545.1 hPa South 5.1 km/h 20.8 km/h 88 % 0 mm
16:00 -16.1 °C -17.1 °C 33545.1 hPa South 5.1 km/h 15.6 km/h 88 % 0 mm
16:15 -16.2 °C -17.1 °C 33534.9 hPa South 5.1 km/h 20.8 km/h 89 % 0 mm
16:30 -16.4 °C -17.2 °C 33534.9 hPa Calm   10.3 km/h 90 % 0 mm
16:45 -16.6 °C -17.2 °C 33534.9 hPa Calm   12.9 km/h 92 % 0 mm
17:00 -16.7 °C -17.3 °C 33524.8 hPa Calm   10.3 km/h 93 % 0 mm
17:15 -16.8 °C -17.4 °C 33524.8 hPa Calm   5.1 km/h 93 % 0 mm
17:30 -17 °C -17.6 °C 33524.8 hPa Calm   10.3 km/h 93 % 0 mm
17:45 -17.1 °C -17.6 °C 33524.8 hPa Calm   5.1 km/h 94 % 0 mm
18:00 -17.2 °C -17.6 °C 33524.8 hPa Calm   10.3 km/h 95 % 0 mm
18:15 -17.1 °C -17.5 °C 33524.8 hPa Calm   12.9 km/h 95 % 0 mm
18:30 -17.1 °C -17.4 °C 33524.8 hPa SSE 2.6 km/h 12.9 km/h 95 % 0 mm
18:45 -17 °C -17.4 °C 33524.8 hPa Calm   12.9 km/h 95 % 0 mm
19:00 -17 °C -17.4 °C 33524.8 hPa SSE 2.6 km/h 20.8 km/h 95 % 0 mm
19:15 -16.9 °C -17.3 °C 33524.8 hPa SE 2.6 km/h 12.9 km/h 95 % 0 mm
19:30 -16.9 °C -17.3 °C 33534.9 hPa Calm   12.9 km/h 95 % 0 mm
19:45 -16.9 °C -17.3 °C 33534.9 hPa SSE 2.6 km/h 18.2 km/h 95 % 0 mm
20:00 -16.9 °C -17.3 °C 33524.8 hPa South 2.6 km/h 12.9 km/h 95 % 0 mm
20:15 -16.9 °C -17.3 °C 33524.8 hPa Calm   10.3 km/h 95 % 0 mm
20:30 -16.8 °C -17.2 °C 33524.8 hPa SSE 2.6 km/h 15.6 km/h 95 % 0 mm
20:45 -16.8 °C -17.2 °C 33524.8 hPa SE 2.6 km/h 12.9 km/h 95 % 0 mm
21:00 -16.7 °C -17.2 °C 33524.8 hPa SSE 2.6 km/h 15.6 km/h 94 % 0 mm
21:15 -16.7 °C -17.2 °C 33511.2 hPa Calm   10.3 km/h 94 % 0 mm
21:30 -16.7 °C -17.2 °C 33524.8 hPa Calm   5.1 km/h 94 % 0 mm
21:45 -16.7 °C -17.2 °C 33511.2 hPa Calm   7.7 km/h 94 % 0 mm
22:00 -16.6 °C -17.1 °C 33511.2 hPa Calm   12.9 km/h 94 % 0 mm
22:15 -16.6 °C -17.1 °C 33511.2 hPa Calm   2.6 km/h 94 % 0 mm
22:30 -16.6 °C -17.1 °C 33511.2 hPa Calm   12.9 km/h 94 % 0 mm
22:45 -16.6 °C -17.1 °C 33511.2 hPa SSE 5.1 km/h 23.3 km/h 94 % 0 mm
23:00 -16.6 °C -17.1 °C 33511.2 hPa SSE 7.7 km/h 28.5 km/h 94 % 0 mm
23:15 -16.6 °C -17 °C 33511.2 hPa South 5.1 km/h 20.8 km/h 94 % 0 mm
23:30 -16.6 °C -17.1 °C 33511.2 hPa SSE 2.6 km/h 12.9 km/h 94 % 0 mm
23:45 -16.6 °C -17.1 °C 33511.2 hPa SSW 2.6 km/h 10.3 km/h 94 % 0 mm
Esan sääasema
Terveisin Weather Underground - 2.75 mb

Alkuperäinen skripti  Jim McMurry - jmcmurry@mwt.net Sovitettu myös templatelle  Wim van der Kuil - Leuven-Template.eu

Laitteet joita käytämme:

Sääasema
Davis VP2

Sääasemaohjelma
Cumulus

Sääaseman tietokone
Asus EeePC

Palveluntarjoaja
Suncomet

Davis VP2

Cumulus

Asus EeePC

Suncomet